Etusivu
METAR-TAF:

METAR-TAF

Lentoasemat :

Pekingin kansainvälinen lentoasema

Peking, Kiina

Leveyspiiri: 39-56N, Pituuspiiri: 116-17E, korkeus merenpinnasta: 55 m

Tämänhetkinen sää

Tämä raportti tehtiin 34 minuuttia sitten, kello 17.00 UTC
Tuuli 2 kn pohjoisesta
Lämpötila 17°C
Kosteus 77%
Ilmanpaine 1017 hPa
Näkyvyys 10 km tai enemmän
Hajanaisia pilviä 2600 ft:n korkeudessa

METAR: ZBAA 201700Z 01001MPS 9999 SCT026 17/13 Q1017 NOSIG

Aika: 01:34 (17:34 UTC)

Sääennuste

Tämä raportti tehtiin 8 tuntia ja 4 minuuttia sitten, kello 09.30 UTC
Ennuste voimassa 20. päivästä klo 12 UTC - 21. päivään klo 12 UTC
Tuuli 8 kn idästä/kaakosta
Näkyvyys: 6000 m

TAF: ZBAA 200930Z 2012/2112 12004MPS 6000 NSC TX19/2107Z TN15/2021Z

Säähavainnot ja -ennusteet yli 4000 lentoasemalta (METAR- ja TAF-raportit).

Käytössä olevat sääasemat on merkitty karttaan keltaisilla ja punaisilla pisteillä.

Aseta hiiri pisteen päälle nähdäksesi sääaseman nimen.

Klikkaa sitten nähdäksesi säähavainnot ja -ennusteet.

Kartan vaihtaminen: klikkaa mustalla rastilla varustettuja vihreitä pisteitä, niin voit zoomata sisään; viivalla varustettua vihreää pistettä, niin voit zoomata ulos tai vihreitä nuolia, niin pääset viereisille kartoille.


METAR-TAF: